Time;durP1;ratioP1;P1;durP2;ratioP2;P2;SDS_P1;SDS_P2;PMS_P1;PMS_P2;Temp;Humidity;BMP_temperature;BMP_pressure;BME280_temperature;BME280_humidity;BME280_pressure;Samples;Min_cycle;Max_cycle;Signal;HPM_P1;HPM_P2
2022/12/26 00:00:20;;;;;;;25.05;11.80;;;;;;;2.39;94.37;97920.13;5001547;28;20519;-56
2022/12/26 00:02:47;;;;;;;25.20;11.45;;;;;;;2.33;95.02;97927.59;5002789;28;20413;-56
2022/12/26 00:05:13;;;;;;;25.83;12.25;;;;;;;2.32;95.21;97919.69;5002679;28;20053;-56
2022/12/26 00:07:40;;;;;;;32.50;15.32;;;;;;;2.29;95.35;97925.75;5001608;28;20045;-58
2022/12/26 00:10:07;;;;;;;40.67;18.30;;;;;;;2.32;94.82;97930.63;4983431;28;20050;-56
2022/12/26 00:12:34;;;;;;;39.97;17.42;;;;;;;1.81;94.72;97864.16;4990964;28;20563;-56
2022/12/26 00:15:01;;;;;;;25.33;11.48;;;;;;;2.29;94.76;97942.16;5002673;28;20057;-58
2022/12/26 00:17:27;;;;;;;20.20;8.10;;;;;;;2.20;96.47;97954.84;5003093;28;20046;-58
2022/12/26 00:19:54;;;;;;;20.52;8.20;;;;;;;1.94;96.72;97902.50;5001097;28;20054;-56
2022/12/26 00:22:20;;;;;;;23.10;7.80;;;;;;;1.81;97.57;97926.97;5002072;28;20132;-59
2022/12/26 00:24:47;;;;;;;17.15;7.93;;;;;;;1.85;97.81;97911.63;5001386;28;20414;-58
2022/12/26 00:27:14;;;;;;;17.60;7.75;;;;;;;1.97;97.19;97951.06;5002707;28;20058;-58
2022/12/26 00:29:40;;;;;;;15.40;7.03;;;;;;;1.96;97.35;97956.84;5002802;28;20141;-59
2022/12/26 00:32:07;;;;;;;20.17;8.85;;;;;;;1.49;96.84;97879.31;5001519;28;20045;-56
2022/12/26 00:34:35;;;;;;;27.90;13.18;;;;;;;2.09;95.97;97961.56;5002347;28;20112;-58
2022/12/26 00:37:01;;;;;;;20.80;11.40;;;;;;;2.03;95.28;97962.72;5000843;28;20972;-58
2022/12/26 00:39:28;;;;;;;70.10;34.25;;;;;;;2.04;94.25;97961.66;5002463;28;20307;-56
2022/12/26 00:41:55;;;;;;;27.92;14.05;;;;;;;1.93;94.66;97971.06;5002314;28;20111;-56
2022/12/26 00:44:21;;;;;;;35.92;16.52;;;;;;;1.86;95.47;97959.69;5002442;28;20594;-56
2022/12/26 00:46:48;;;;;;;37.15;16.38;;;;;;;1.25;96.45;97911.25;5005517;28;20045;-56
2022/12/26 00:49:15;;;;;;;25.17;12.20;;;;;;;1.30;97.69;97905.72;5005731;28;20054;-56
2022/12/26 00:51:41;;;;;;;27.08;9.48;;;;;;;1.72;97.93;97954.13;5003992;28;20580;-56
2022/12/26 00:54:08;;;;;;;19.77;10.85;;;;;;;1.80;97.09;97960.84;5006246;28;20054;-56
2022/12/26 00:56:35;;;;;;;31.25;14.23;;;;;;;1.77;96.06;97955.97;5005628;28;20429;-57
2022/12/26 00:59:01;;;;;;;48.17;18.58;;;;;;;1.76;95.95;97965.25;5005630;28;20112;-56
2022/12/26 01:01:31;;;;;;;48.75;20.08;;;;;;;1.71;96.58;97957.16;5005514;28;20572;-56
2022/12/26 01:03:58;;;;;;;58.90;24.27;;;;;;;1.73;96.53;97954.91;5004691;28;20042;-58
2022/12/26 01:06:25;;;;;;;44.97;19.17;;;;;;;1.77;96.64;97955.97;5005937;28;20104;-58
2022/12/26 01:08:52;;;;;;;39.05;16.92;;;;;;;1.78;97.39;97952.94;4999529;28;20085;-56
2022/12/26 01:14:06;;;;;;;17.83;7.70;;;;;;;1.83;96.78;97957.53;4985939;28;20050;-58
2022/12/26 01:16:33;;;;;;;10.13;5.50;;;;;;;1.35;96.43;97900.22;4986264;28;20476;-56
2022/12/26 01:19:00;;;;;;;12.23;6.18;;;;;;;1.68;98.34;97963.97;4986065;28;20129;-58
2022/12/26 01:21:26;;;;;;;10.35;4.35;;;;;;;0.85;98.23;97826.31;4984234;28;20576;-56
2022/12/26 01:23:54;;;;;;;9.90;4.40;;;;;;;1.38;97.59;97899.63;4985570;28;20050;-58
2022/12/26 01:26:20;;;;;;;10.90;4.72;;;;;;;1.80;96.66;97955.38;4985093;28;20187;-58
2022/12/26 01:28:52;;;;;;;7.68;4.63;;;;;;;1.26;97.03;97885.59;4984023;28;20054;-57
2022/12/26 01:31:20;;;;;;;9.35;4.45;;;;;;;1.66;98.25;97949.00;4983951;28;20121;-58
2022/12/26 01:33:47;;;;;;;6.53;2.65;;;;;;;1.63;98.03;97944.13;4985153;28;20062;-57
2022/12/26 01:36:15;;;;;;;7.93;3.25;;;;;;;1.51;98.49;97920.78;4985093;28;20058;-57
2022/12/26 01:38:42;;;;;;;5.75;3.08;;;;;;;1.60;97.47;97928.34;4985849;28;20468;-58
2022/12/26 01:41:15;;;;;;;6.70;3.20;;;;;;;1.53;97.91;97940.41;4963905;28;20188;-58
2022/12/26 01:43:54;;;;;;;7.07;3.22;;;;;;;1.22;98.23;97890.00;4996522;28;20046;-56
2022/12/26 01:46:42;;;;;;;14.50;4.43;;;;;;;1.51;99.06;97947.25;4979756;28;20141;-56
2022/12/26 01:49:31;;;;;;;10.88;4.55;;;;;;;1.38;100.00;97929.66;4988734;28;20156;-56
2022/12/26 01:52:02;;;;;;;8.88;4.93;;;;;;;1.44;99.39;97944.88;5007561;28;20062;-58
2022/12/26 01:54:34;;;;;;;11.40;4.32;;;;;;;1.44;99.75;97942.16;5003274;28;20144;-56
2022/12/26 01:57:32;;;;;;;16.88;5.93;;;;;;;0.93;99.86;97870.09;5003792;28;20050;-59
2022/12/26 02:00:00;;;;;;;17.83;9.07;;;;;;;1.44;99.94;97953.06;5004637;28;20475;-58
2022/12/26 02:02:28;;;;;;;18.90;8.27;;;;;;;1.49;99.76;97953.00;4113565;28;5002079;-56
2022/12/26 02:07:45;;;;;;;16.13;6.68;;;;;;;1.51;98.52;97945.34;5005131;28;20046;-58
2022/12/26 02:10:15;;;;;;;11.35;5.18;;;;;;;1.40;98.74;97924.72;4988297;28;20053;-57
2022/12/26 02:12:43;;;;;;;15.02;6.22;;;;;;;1.54;97.36;97963.88;4984626;28;20051;-56
2022/12/26 02:15:14;;;;;;;12.70;4.95;;;;;;;1.46;97.48;97950.88;4984678;28;20086;-56
2022/12/26 02:17:40;;;;;;;17.35;7.13;;;;;;;1.43;98.99;97965.09;4984320;28;20077;-56
2022/12/26 02:20:19;;;;;;;16.60;6.80;;;;;;;1.46;98.80;97964.50;4983131;28;20560;-56
2022/12/26 02:23:12;;;;;;;22.50;8.75;;;;;;;1.48;99.21;97975.13;4983272;28;20050;-58
2022/12/26 02:25:57;;;;;;;20.15;8.23;;;;;;;1.48;98.24;97984.16;4983467;28;20484;-58
2022/12/26 02:28:52;;;;;;;31.75;11.27;;;;;;;1.45;97.40;97990.16;4984957;28;20058;-59
2022/12/26 02:32:00;;;;;;;24.05;10.82;;;;;;;1.39;96.39;97994.06;4984252;28;20548;-58
2022/12/26 02:34:43;;;;;;;23.52;10.57;;;;;;;0.92;97.38;97961.22;4967098;28;20153;-56
2022/12/26 02:37:41;;;;;;;22.05;10.18;;;;;;;1.11;98.51;98000.34;4981519;28;20605;-58
2022/12/26 02:40:29;;;;;;;29.65;12.38;;;;;;;1.09;99.59;97994.34;4983781;28;20461;-58
2022/12/26 02:43:34;;;;;;;17.65;9.02;;;;;;;1.23;99.15;98008.94;4976129;28;20053;-56
2022/12/26 02:49:10;;;;;;;17.85;9.85;;;;;;;1.12;100.00;97999.22;4984479;28;20054;-59
2022/12/26 03:15:13;;;;;;;14.63;5.20;;;;;;;0.84;100.00;97901.84;5003829;28;20050;-58
2022/12/26 03:17:51;;;;;;;15.25;5.40;;;;;;;1.22;100.00;97960.13;5002222;28;20145;-58
2022/12/26 03:20:28;;;;;;;11.48;5.35;;;;;;;1.08;100.00;97942.78;5003243;28;20088;-57
2022/12/26 03:22:56;;;;;;;14.65;6.22;;;;;;;1.11;100.00;97959.41;5002913;28;20057;-58
2022/12/26 03:28:22;;;;;;;13.70;5.90;;;;;;;1.03;100.00;97979.13;5003186;28;20145;-59
2022/12/26 03:30:50;;;;;;;14.35;6.30;;;;;;;1.06;99.59;97989.47;5001181;28;20579;-57
2022/12/26 03:36:32;;;;;;;16.35;6.85;;;;;;;0.71;99.75;97959.75;5003093;28;20084;-56
2022/12/26 04:44:34;;;;;;;105.78;42.40;;;;;;;0.82;100.00;98047.75;5006160;28;20058;-59
2022/12/26 04:47:01;;;;;;;74.25;32.28;;;;;;;0.86;100.00;98033.28;5005881;28;20556;-59
2022/12/26 04:52:14;;;;;;;17.77;10.10;;;;;;;0.77;100.00;98034.16;5006310;28;20058;-56
2022/12/26 04:54:41;;;;;;;126.45;50.83;;;;;;;0.20;100.00;97963.94;5004486;28;20053;-56
2022/12/26 04:57:07;;;;;;;200.60;78.28;;;;;;;0.74;100.00;98029.28;5005571;28;20058;-56
2022/12/26 04:59:34;;;;;;;83.35;34.50;;;;;;;0.76;100.00;98036.06;5005370;28;20140;-58
2022/12/26 05:10:26;;;;;;;33.40;15.15;;;;;;;0.68;100.00;98036.66;4992724;28;20057;-58
2022/12/26 05:12:53;;;;;;;49.15;17.70;;;;;;;0.78;100.00;98020.25;4986605;28;20058;-56
2022/12/26 05:15:20;;;;;;;91.72;26.88;;;;;;;0.83;100.00;98022.94;4986033;28;20050;-56
2022/12/26 05:28:49;;;;;;;28.73;13.05;;;;;;;0.59;100.00;98015.72;4985523;28;20089;-56
2022/12/26 05:31:16;;;;;;;24.60;11.63;;;;;;;0.55;100.00;97996.44;4985827;28;20129;-56
2022/12/26 05:36:36;;;;;;;21.48;11.02;;;;;;;0.61;100.00;98030.72;4985035;28;20062;-55
2022/12/26 05:39:04;;;;;;;24.23;11.73;;;;;;;-1.70;100.00;97661.06;4984871;28;20054;-59
2022/12/26 05:41:30;;;;;;;40.13;21.55;;;;;;;0.63;100.00;98027.72;4984866;28;20141;-55
2022/12/26 05:43:57;;;;;;;38.10;19.00;;;;;;;0.54;100.00;98023.97;4983756;28;20054;-57
2022/12/26 05:46:24;;;;;;;36.65;17.67;;;;;;;0.64;100.00;98041.06;4984565;28;20054;-58
2022/12/26 05:48:51;;;;;;;35.95;18.10;;;;;;;0.16;100.00;97951.16;4983619;28;20054;-56
2022/12/26 05:51:17;;;;;;;58.42;27.98;;;;;;;0.73;100.00;98033.06;4984816;28;20050;-57
2022/12/26 05:53:44;;;;;;;73.47;35.25;;;;;;;0.72;100.00;98035.00;4985105;28;20498;-56
2022/12/26 05:56:14;;;;;;;85.43;39.38;;;;;;;0.30;100.00;97991.09;4984952;28;20078;-58
2022/12/26 05:58:41;;;;;;;86.38;38.75;;;;;;;0.74;100.00;98043.72;4984215;28;20058;-56
2022/12/26 06:01:16;;;;;;;81.70;36.38;;;;;;;-0.17;100.00;97887.34;4985145;28;20062;-57
2022/12/26 06:03:47;;;;;;;80.45;37.90;;;;;;;0.87;100.00;98051.25;4985261;28;20129;-56
2022/12/26 06:06:15;;;;;;;51.33;22.83;;;;;;;0.94;100.00;98046.31;4984742;28;20046;-55
2022/12/26 06:08:42;;;;;;;28.52;13.00;;;;;;;0.91;100.00;98046.88;4985017;28;20078;-56
2022/12/26 06:11:11;;;;;;;28.40;13.10;;;;;;;0.98;100.00;98041.88;5003924;28;20196;-59
2022/12/26 06:13:39;;;;;;;39.42;17.27;;;;;;;0.95;100.00;98047.13;5002255;28;20049;-56
2022/12/26 06:16:09;;;;;;;45.80;21.52;;;;;;;1.00;100.00;98044.34;5003680;28;20119;-56
2022/12/26 06:18:35;;;;;;;25.27;11.52;;;;;;;0.80;100.00;98012.59;5001897;28;20603;-56
2022/12/26 06:21:14;;;;;;;27.65;12.85;;;;;;;1.05;100.00;98057.94;5004399;28;20131;-56
2022/12/26 06:23:42;;;;;;;30.02;14.20;;;;;;;0.40;100.00;97924.84;5003047;28;20583;-57
2022/12/26 06:26:11;;;;;;;31.90;15.50;;;;;;;1.04;100.00;98018.94;5004429;28;20050;-58
2022/12/26 06:28:39;;;;;;;29.50;13.18;;;;;;;1.08;100.00;98028.19;5003614;28;20501;-56
2022/12/26 06:31:07;;;;;;;31.60;14.00;;;;;;;1.31;100.00;98046.53;5003992;28;20477;-58
2022/12/26 06:33:34;;;;;;;25.02;10.90;;;;;;;1.48;100.00;98052.41;5003943;28;20057;-58
2022/12/26 06:36:22;;;;;;;391.88;150.25;;;;;;;1.81;100.00;98052.59;5004169;28;20145;-58
2022/12/26 06:38:50;;;;;;;54.45;25.23;;;;;;;1.61;100.00;98006.41;5003625;28;20053;-59
2022/12/26 06:41:19;;;;;;;38.78;19.17;;;;;;;2.05;100.00;98056.16;5001910;28;20064;-58
2022/12/26 06:43:46;;;;;;;26.25;12.55;;;;;;;2.21;100.00;98044.78;5004454;28;20053;-59
2022/12/26 06:46:15;;;;;;;24.88;12.60;;;;;;;2.18;98.69;98045.31;5002925;28;20457;-58
2022/12/26 06:48:42;;;;;;;40.53;15.85;;;;;;;2.41;98.05;98062.81;5004152;28;20053;-56
2022/12/26 06:51:18;;;;;;;50.42;22.20;;;;;;;2.54;97.27;98056.63;5002063;28;20058;-56
2022/12/26 06:53:45;;;;;;;54.88;24.77;;;;;;;2.58;96.00;98063.13;5003777;28;20129;-58
2022/12/26 06:56:17;;;;;;;53.20;26.70;;;;;;;2.77;95.43;98063.97;5003599;28;20092;-58
2022/12/26 06:58:44;;;;;;;67.28;32.08;;;;;;;2.96;94.75;98067.50;5004173;28;20076;-57
2022/12/26 07:01:14;;;;;;;68.25;34.63;;;;;;;3.16;93.56;98056.28;5004109;28;20095;-59
2022/12/26 07:03:41;;;;;;;74.47;36.47;;;;;;;3.32;93.56;98063.09;5004403;28;20124;-56
2022/12/26 07:06:22;;;;;;;65.18;30.90;;;;;;;3.43;92.50;98064.56;5003660;28;20058;-57
2022/12/26 07:08:50;;;;;;;60.42;28.52;;;;;;;3.46;90.73;98061.25;5003606;28;20104;-58
2022/12/26 07:11:20;;;;;;;132.18;59.95;;;;;;;3.57;90.10;98065.44;4984059;28;20050;-58
2022/12/26 07:13:47;;;;;;;71.90;36.47;;;;;;;3.52;87.89;98038.13;4983954;28;20052;-60
2022/12/26 07:16:14;;;;;;;75.88;39.00;;;;;;;3.69;87.23;98043.84;4982236;28;20121;-57
2022/12/26 07:18:41;;;;;;;77.68;40.25;;;;;;;3.33;87.47;97968.91;4983930;28;20065;-57
2022/12/26 07:21:11;;;;;;;83.03;42.63;;;;;;;3.83;88.59;98028.25;4984459;28;20062;-57
2022/12/26 07:23:38;;;;;;;80.53;36.08;;;;;;;4.23;88.23;98060.34;4984173;28;20065;-59
2022/12/26 07:26:05;;;;;;;74.28;36.90;;;;;;;4.34;85.79;98067.25;4982156;28;20053;-59
2022/12/26 07:28:31;;;;;;;100.82;41.67;;;;;;;4.45;84.35;98063.19;4983429;28;20057;-57
2022/12/26 07:30:59;;;;;;;71.60;37.13;;;;;;;4.63;85.32;98059.50;4982136;28;20046;-58
2022/12/26 07:33:27;;;;;;;72.35;39.45;;;;;;;4.80;84.51;98058.03;4983860;28;20055;-60
2022/12/26 07:35:58;;;;;;;77.28;40.15;;;;;;;4.83;82.99;98052.75;4983699;28;20049;-57
2022/12/26 07:38:24;;;;;;;73.45;39.00;;;;;;;5.09;81.98;98062.03;4984018;28;20591;-60
2022/12/26 07:40:55;;;;;;;402.25;156.27;;;;;;;4.74;82.07;98004.41;4983898;28;20085;-57
2022/12/26 07:43:22;;;;;;;274.15;101.22;;;;;;;5.41;81.64;98067.31;4983557;28;20058;-57
2022/12/26 07:45:50;;;;;;;132.43;60.47;;;;;;;5.58;81.36;98066.63;4982143;28;20092;-57
2022/12/26 07:48:17;;;;;;;124.80;60.95;;;;;;;5.68;80.25;98052.59;4983337;28;20141;-61
2022/12/26 07:50:48;;;;;;;102.70;52.45;;;;;;;5.94;78.92;98072.84;4982701;28;20069;-59
2022/12/26 07:53:14;;;;;;;82.40;44.38;;;;;;;5.76;78.28;98027.09;4982231;28;20054;-59
2022/12/26 07:55:41;;;;;;;63.20;33.30;;;;;;;6.03;79.43;98084.72;4986963;28;20081;-57
2022/12/26 07:58:08;;;;;;;58.33;30.73;;;;;;;6.26;78.11;98152.28;4987828;28;20580;-58
2022/12/26 08:00:34;;;;;;;53.05;30.27;;;;;;;6.32;78.04;98081.44;4987166;28;20540;-61
2022/12/26 08:03:01;;;;;;;58.78;28.58;;;;;;;6.54;77.26;98081.38;4987381;28;20638;-58
2022/12/26 08:05:33;;;;;;;53.63;28.83;;;;;;;6.70;77.50;98064.06;4987051;28;20051;-58
2022/12/26 08:08:00;;;;;;;51.92;28.83;;;;;;;6.93;75.85;98084.88;4986988;28;20363;-57
2022/12/26 08:10:27;;;;;;;46.10;27.60;;;;;;;6.79;75.56;98031.88;4998255;28;20136;-58
2022/12/26 08:12:53;;;;;;;48.97;26.25;;;;;;;7.16;74.70;98082.81;5005846;28;20107;-58
2022/12/26 08:15:20;;;;;;;42.00;25.05;;;;;;;7.24;74.81;98071.78;5006963;28;20062;-58
2022/12/26 08:17:46;;;;;;;54.67;31.40;;;;;;;7.47;73.96;98073.25;5007146;28;20053;-57
2022/12/26 08:20:13;;;;;;;46.20;25.92;;;;;;;7.63;74.44;98073.56;5005562;28;20085;-58
2022/12/26 08:22:40;;;;;;;40.78;23.08;;;;;;;7.68;73.58;98068.66;5006988;28;20424;-57
2022/12/26 08:25:07;;;;;;;88.32;43.40;;;;;;;7.89;74.03;98068.00;5006512;28;20590;-58
2022/12/26 08:27:34;;;;;;;54.28;29.20;;;;;;;8.04;73.57;98075.75;5006169;28;20137;-56
2022/12/26 08:30:00;;;;;;;32.10;17.60;;;;;;;7.42;74.59;98012.78;5006375;28;20046;-58
2022/12/26 08:32:27;;;;;;;27.00;15.73;;;;;;;7.70;75.23;98143.63;5006450;28;20203;-58
2022/12/26 08:34:54;;;;;;;24.55;13.85;;;;;;;7.55;76.45;98075.19;5006024;28;20133;-59
2022/12/26 08:37:22;;;;;;;25.13;14.65;;;;;;;6.89;78.64;98034.31;5006524;28;20055;-57
2022/12/26 08:39:51;;;;;;;20.30;12.00;;;;;;;6.93;79.34;98062.03;5006196;28;20153;-58
2022/12/26 08:42:19;;;;;;;25.52;14.13;;;;;;;7.28;78.73;98042.44;5006074;28;20131;-60
2022/12/26 08:44:45;;;;;;;18.38;11.95;;;;;;;7.62;77.53;98053.44;5005676;28;20054;-58
2022/12/26 08:47:13;;;;;;;18.05;10.93;;;;;;;7.85;76.16;98056.00;5005770;28;20120;-57
2022/12/26 08:49:40;;;;;;;28.27;19.75;;;;;;;8.01;75.16;98026.75;5020830;28;20089;-58
2022/12/26 08:52:07;;;;;;;21.10;11.50;;;;;;;8.34;74.27;98052.63;5005942;28;20069;-59
2022/12/26 08:54:33;;;;;;;33.08;20.13;;;;;;;8.59;72.43;98043.41;5006323;28;20495;-58
2022/12/26 08:57:00;;;;;;;14.60;7.38;;;;;;;8.29;70.90;98044.53;5006335;28;20507;-57
2022/12/26 08:59:27;;;;;;;9.15;6.03;;;;;;;7.68;71.75;97980.44;5005761;28;20046;-56
2022/12/26 09:01:53;;;;;;;8.43;4.90;;;;;;;8.12;71.71;98022.47;5006171;28;20274;-59
2022/12/26 09:04:20;;;;;;;8.60;4.53;;;;;;;8.31;69.44;98003.59;5005898;28;20501;-56
2022/12/26 09:06:47;;;;;;;9.70;4.22;;;;;;;8.74;67.78;98040.09;5005439;28;20046;-57
2022/12/26 09:09:14;;;;;;;11.63;5.35;;;;;;;8.44;69.42;98036.47;5005463;28;20119;-56
2022/12/26 09:11:41;;;;;;;9.45;4.35;;;;;;;8.32;69.90;98032.81;5005150;28;20061;-57
2022/12/26 09:14:08;;;;;;;4.55;2.63;;;;;;;8.71;68.77;98032.47;5005285;28;20060;-58
2022/12/26 09:16:45;;;;;;;10.60;3.90;;;;;;;8.65;69.15;98042.06;5003624;28;20133;-56
2022/12/26 09:19:18;;;;;;;5.55;3.28;;;;;;;8.78;69.52;98024.44;5005089;28;20057;-58
2022/12/26 09:21:47;;;;;;;5.25;3.05;;;;;;;8.87;69.14;98005.84;5005230;28;20132;-59
2022/12/26 09:24:16;;;;;;;8.00;3.97;;;;;;;9.25;68.67;98016.81;5005286;28;20045;-56
2022/12/26 09:26:43;;;;;;;4.65;3.25;;;;;;;9.24;65.66;98015.97;5005580;28;20475;-57
2022/12/26 09:29:12;;;;;;;3.95;2.25;;;;;;;9.01;65.55;98022.97;5004989;28;20054;-57
2022/12/26 09:31:39;;;;;;;14.93;11.13;;;;;;;8.49;66.04;97977.50;5005243;28;20046;-58
2022/12/26 09:34:06;;;;;;;4.22;2.95;;;;;;;9.10;65.12;98007.94;5005283;28;20120;-57
2022/12/26 09:36:38;;;;;;;7.43;4.75;;;;;;;9.49;65.48;98006.66;5004690;28;20057;-58
2022/12/26 09:39:05;;;;;;;9.95;5.20;;;;;;;9.68;63.76;98008.91;5005030;28;20437;-57
2022/12/26 09:41:44;;;;;;;10.50;5.55;;;;;;;9.79;61.81;98005.38;5004774;28;20817;-58
2022/12/26 09:44:38;;;;;;;4.85;4.10;;;;;;;9.75;61.95;97998.91;5004762;28;20508;-57
2022/12/26 09:47:23;;;;;;;;;;;;;;;10.15;60.12;98007.41;5004919;28;20053;-57
2022/12/26 09:49:56;;;;;;;10.18;4.10;;;;;;;9.93;59.80;98000.31;5005648;28;19948;-58
2022/12/26 09:53:06;;;;;;;9.48;4.03;;;;;;;10.17;60.64;97999.59;5004633;28;20073;-57
2022/12/26 09:55:54;;;;;;;3.03;1.90;;;;;;;10.46;59.94;97997.41;5001873;28;20165;-59
2022/12/26 09:58:58;;;;;;;5.88;2.83;;;;;;;10.61;59.36;97987.59;5001929;28;21099;-58
2022/12/26 10:01:32;;;;;;;2.38;1.92;;;;;;;10.49;58.79;97968.22;5003803;28;20128;-58
2022/12/26 10:04:00;;;;;;;2.72;1.70;;;;;;;10.65;57.05;97978.22;5004436;28;20057;-58
2022/12/26 10:06:37;;;;;;;10.40;4.10;;;;;;;10.74;58.88;97964.25;5003996;28;20104;-59
2022/12/26 10:09:19;;;;;;;7.78;5.00;;;;;;;11.06;58.56;97970.78;5004299;28;20100;-57
2022/12/26 10:12:24;;;;;;;10.02;5.20;;;;;;;11.37;57.62;97966.16;4951224;28;20567;-56
2022/12/26 10:15:02;;;;;;;9.32;5.00;;;;;;;11.56;57.19;97957.16;4984417;28;20486;-57
2022/12/26 10:17:41;;;;;;;9.23;4.93;;;;;;;11.73;56.94;97956.88;4983878;28;20505;-59
2022/12/26 10:20:32;;;;;;;9.30;6.15;;;;;;;12.01;55.35;97946.53;4984843;28;20086;-58
2022/12/26 10:23:20;;;;;;;2.72;1.77;;;;;;;11.26;55.74;97953.13;4984646;28;20046;-58
2022/12/26 10:25:54;;;;;;;5.00;2.75;;;;;;;11.44;56.40;97943.38;4983081;28;20528;-58
2022/12/26 10:28:44;;;;;;;2.45;2.25;;;;;;;11.69;55.43;97939.34;4985031;28;20061;-57
2022/12/26 10:31:24;;;;;;;1.98;1.77;;;;;;;11.86;55.14;97931.47;4985010;28;20050;-58
2022/12/26 10:34:03;;;;;;;2.22;1.75;;;;;;;11.95;53.85;97925.72;4985362;28;20101;-59
2022/12/26 10:37:02;;;;;;;6.45;4.28;;;;;;;11.64;55.65;97918.19;4984638;28;20058;-56
2022/12/26 10:39:46;;;;;;;4.15;2.55;;;;;;;12.02;54.25;97920.38;4984274;28;20053;-57
2022/12/26 10:42:28;;;;;;;4.47;2.20;;;;;;;11.91;54.09;97874.88;4984062;28;20145;-57
2022/12/26 10:44:57;;;;;;;4.60;2.60;;;;;;;11.58;55.05;97871.59;4984121;28;20098;-58
2022/12/26 10:47:34;;;;;;;2.50;1.80;;;;;;;11.79;54.57;97911.84;4983972;28;20498;-57
2022/12/26 10:50:01;;;;;;;3.42;2.20;;;;;;;11.53;54.43;97830.25;4984284;28;20130;-57
2022/12/26 10:52:38;;;;;;;3.22;2.25;;;;;;;11.77;55.16;97844.00;4984488;28;20477;-58
2022/12/26 10:55:05;;;;;;;3.78;2.33;;;;;;;12.40;53.83;97895.53;4984529;28;20109;-59
2022/12/26 10:57:53;;;;;;;3.78;2.00;;;;;;;11.87;52.30;97791.50;4983193;28;20410;-57
2022/12/26 11:00:24;;;;;;;5.88;3.85;;;;;;;12.72;52.26;97899.84;4983394;28;20588;-58
2022/12/26 11:03:12;;;;;;;5.18;3.15;;;;;;;12.16;54.06;97893.78;4983963;28;20195;-57
2022/12/26 11:05:43;;;;;;;196.88;80.65;;;;;;;12.36;53.40;97891.84;4983697;28;20086;-57
2022/12/26 11:08:48;;;;;;;652.35;305.58;;;;;;;12.32;53.38;97849.28;4984153;28;20042;-58
2022/12/26 11:11:44;;;;;;;80.97;31.85;;;;;;;12.48;52.73;97836.16;5002240;28;20571;-58
2022/12/26 11:14:32;;;;;;;7.03;3.13;;;;;;;12.91;52.03;97877.63;5002040;28;20077;-58
2022/12/26 11:17:06;;;;;;;6.90;3.65;;;;;;;12.76;52.41;97878.47;5001555;28;20050;-58
2022/12/26 11:19:37;;;;;;;6.45;2.90;;;;;;;11.94;53.41;97835.28;5003389;28;20061;-56
2022/12/26 11:22:27;;;;;;;16.40;7.75;;;;;;;12.72;53.51;97872.03;5003784;28;20057;-57
2022/12/26 11:25:06;;;;;;;4.47;2.88;;;;;;;12.98;51.85;97874.97;4999217;28;20050;-58
2022/12/26 11:27:33;;;;;;;7.78;4.97;;;;;;;12.91;52.39;97871.25;5003433;28;20064;-58
2022/12/26 11:30:09;;;;;;;19.65;10.68;;;;;;;13.13;51.53;97870.53;5003575;28;20093;-57
2022/12/26 11:32:37;;;;;;;13.70;7.40;;;;;;;13.08;51.41;97846.63;5003667;28;20045;-57
2022/12/26 11:35:04;;;;;;;7.30;4.22;;;;;;;13.03;50.96;97821.88;5003302;28;20056;-61
2022/12/26 11:37:40;;;;;;;39.22;19.27;;;;;;;13.39;51.18;97863.13;5003302;28;20054;-59
2022/12/26 11:40:17;;;;;;;6.80;4.20;;;;;;;12.93;49.82;97800.19;5003013;28;20119;-58
2022/12/26 11:42:59;;;;;;;7.50;3.78;;;;;;;13.14;50.53;97856.28;5002875;28;20189;-59
2022/12/26 11:45:29;;;;;;;3.20;2.90;;;;;;;12.91;50.84;97858.16;5003147;28;20053;-57
2022/12/26 11:48:17;;;;;;;3.13;2.47;;;;;;;12.68;49.52;97798.88;5003330;28;20141;-59
2022/12/26 11:50:45;;;;;;;3.42;2.63;;;;;;;13.06;50.49;97804.44;5002937;28;20527;-59
2022/12/26 11:53:17;;;;;;;5.35;4.60;;;;;;;13.30;49.97;97808.88;5001331;28;20477;-58
2022/12/26 11:55:59;;;;;;;9.13;3.67;;;;;;;13.55;49.45;97849.91;5003327;28;20860;-59
2022/12/26 11:58:31;;;;;;;10.73;6.50;;;;;;;13.49;50.28;97845.81;5003700;28;20143;-58
2022/12/26 12:00:58;;;;;;;4.55;3.30;;;;;;;13.42;49.26;97845.69;5003130;28;20093;-56
2022/12/26 12:03:39;;;;;;;12.25;6.35;;;;;;;13.54;50.23;97848.31;5003616;28;20046;-58
2022/12/26 12:06:32;;;;;;;10.02;6.45;;;;;;;13.62;50.31;97849.25;5002795;28;20053;-57
2022/12/26 12:09:25;;;;;;;6.47;4.15;;;;;;;13.64;50.49;97846.91;5003109;28;20054;-58
2022/12/26 12:12:14;;;;;;;19.92;11.48;;;;;;;13.79;50.69;97840.38;4982397;28;20065;-57
2022/12/26 12:14:56;;;;;;;55.00;29.45;;;;;;;13.86;50.06;97845.28;4983608;28;20143;-59
2022/12/26 12:17:22;;;;;;;6.60;3.67;;;;;;;13.58;50.23;97843.59;4983479;28;20061;-59
2022/12/26 12:20:10;;;;;;;4.07;2.40;;;;;;;13.14;51.20;97850.72;4983383;28;20050;-57
2022/12/26 12:22:40;;;;;;;4.22;2.67;;;;;;;13.33;51.19;97856.25;4982412;28;20101;-57
2022/12/26 12:25:22;;;;;;;11.02;6.07;;;;;;;13.45;50.90;97853.28;4983371;28;20053;-56
2022/12/26 12:28:14;;;;;;;7.75;4.28;;;;;;;13.42;51.31;97862.38;4981939;28;20042;-57
2022/12/26 12:31:05;;;;;;;4.65;2.75;;;;;;;13.37;50.84;97870.25;4983195;28;20093;-56
2022/12/26 12:33:50;;;;;;;9.40;4.05;;;;;;;13.07;51.99;97863.69;4983811;28;20062;-56
2022/12/26 12:36:49;;;;;;;6.18;3.60;;;;;;;13.15;51.83;97863.44;4983011;28;20548;-58
2022/12/26 12:39:30;;;;;;;3.45;2.30;;;;;;;13.24;51.31;97858.47;4983523;28;20054;-57
2022/12/26 12:42:14;;;;;;;4.25;2.15;;;;;;;13.08;52.08;97863.31;4986397;28;20058;-58
2022/12/26 12:44:46;;;;;;;;;;;;;;;13.13;52.23;97854.66;4986207;28;20085;-58
2022/12/26 12:47:53;;;;;;;10.40;6.22;;;;;;;12.88;52.50;97842.19;4987193;28;19925;-57
2022/12/26 12:50:19;;;;;;;14.40;8.52;;;;;;;12.75;53.36;97843.50;4986518;28;20510;-58
2022/12/26 12:53:07;;;;;;;9.43;5.50;;;;;;;12.76;53.14;97847.91;4987140;28;20053;-57
2022/12/26 12:55:40;;;;;;;6.75;4.22;;;;;;;12.70;53.05;97832.69;4986541;28;20054;-56
2022/12/26 12:58:22;;;;;;;22.33;10.03;;;;;;;12.74;52.64;97836.31;4985928;28;20054;-58
2022/12/26 13:00:58;;;;;;;10.88;6.57;;;;;;;12.58;52.28;97818.94;4986435;28;20054;-57
2022/12/26 13:03:32;;;;;;;13.48;5.63;;;;;;;12.66;53.25;97834.56;4986363;28;20052;-57
2022/12/26 13:06:01;;;;;;;20.15;8.90;;;;;;;12.68;52.78;97887.81;4986052;28;20396;-56
2022/12/26 13:09:03;;;;;;;6.93;3.65;;;;;;;12.53;53.23;97835.88;4986117;28;20086;-55
2022/12/26 13:11:43;;;;;;;4.07;2.95;;;;;;;12.42;52.23;97823.72;4994129;28;20057;-59
2022/12/26 13:14:27;;;;;;;6.65;4.00;;;;;;;12.35;54.05;97812.44;4985694;28;20076;-56
2022/12/26 13:16:59;;;;;;;3.65;2.45;;;;;;;11.95;52.44;97759.94;4986224;28;20073;-57
2022/12/26 13:19:43;;;;;;;4.70;2.95;;;;;;;12.38;52.78;97828.38;4986233;28;20430;-58
2022/12/26 13:25:33;;;;;;;8.75;4.65;;;;;;;12.33;53.29;97837.00;4985911;28;20054;-56
2022/12/26 13:28:08;;;;;;;6.20;3.45;;;;;;;12.12;52.79;97817.09;4986235;28;20580;-58
2022/12/26 13:30:36;;;;;;;5.40;3.80;;;;;;;12.18;53.27;97843.41;5000030;28;20046;-57
2022/12/26 13:33:04;;;;;;;5.18;3.42;;;;;;;12.16;53.56;97834.63;4985992;28;20058;-59
2022/12/26 13:36:00;;;;;;;5.25;4.03;;;;;;;12.17;53.80;97839.03;4985998;28;20417;-57
2022/12/26 13:38:48;;;;;;;6.72;2.60;;;;;;;12.03;53.26;97838.66;4984357;28;20116;-59
2022/12/26 13:44:22;;;;;;;6.13;4.05;;;;;;;11.69;54.78;97783.91;4985559;28;20113;-55
2022/12/26 13:46:48;;;;;;;6.65;3.40;;;;;;;11.95;54.04;97836.88;4985200;28;20590;-56
2022/12/26 13:49:35;;;;;;;5.03;2.95;;;;;;;11.91;54.48;97831.28;4985539;28;20050;-57
2022/12/26 13:52:10;;;;;;;4.75;3.03;;;;;;;11.87;54.41;97844.25;4985317;28;20445;-58
2022/12/26 13:54:46;;;;;;;7.38;4.53;;;;;;;11.85;55.21;97840.22;4984820;28;20074;-56
2022/12/26 13:57:21;;;;;;;6.00;3.58;;;;;;;11.77;55.26;97846.75;4985806;28;20371;-55
2022/12/26 13:59:57;;;;;;;5.38;2.92;;;;;;;11.74;55.16;97850.25;4984007;28;20577;-58
2022/12/26 14:02:29;;;;;;;5.95;2.92;;;;;;;11.66;55.50;97845.69;4985601;28;20464;-56
2022/12/26 14:05:40;;;;;;;3.55;2.95;;;;;;;11.63;56.69;97846.41;4984981;28;20172;-58
2022/12/26 14:08:13;;;;;;;7.47;3.40;;;;;;;11.54;56.83;97859.63;4985567;28;20117;-57
2022/12/26 14:11:02;;;;;;;5.60;3.20;;;;;;;11.44;57.61;97860.13;4997367;28;20054;-58
2022/12/26 14:13:38;;;;;;;5.30;3.35;;;;;;;11.37;58.32;97860.75;5004565;28;20053;-58